Time;durP1;ratioP1;P1;durP2;ratioP2;P2;SDS_P1;SDS_P2;PMS_P1;PMS_P2;Temp;Humidity;BMP_temperature;BMP_pressure;BME280_temperature;BME280_humidity;BME280_pressure;Samples;Min_cycle;Max_cycle;Signal;HPM_P1;HPM_P2
2021/03/25 00:04:00;;;;;;;33.63;21.30;;;;;;;5.43;91.94;101079.44;21033036;27;20979;-70
2021/03/25 00:33:54;;;;;;;30.07;19.00;;;;;;;5.38;89.61;101047.00;20858169;27;20592;-69
2021/03/25 00:53:53;;;;;;;31.43;20.97;;;;;;;5.44;89.64;101044.13;20854649;27;21022;-68
2021/03/25 01:23:54;;;;;;;24.33;16.60;;;;;;;5.42;88.98;101011.59;20790064;28;20572;-68
2021/03/25 01:33:55;;;;;;;25.53;17.27;;;;;;;5.46;88.33;101017.63;20778871;28;20919;-69
2021/03/25 01:43:55;;;;;;;26.87;17.60;;;;;;;5.44;87.75;101015.00;20784929;28;20216;-68
2021/03/25 01:54:30;;;;;;;24.87;17.37;;;;;;;5.42;87.28;101011.59;20783540;28;20478;-69
2021/03/25 02:44:54;;;;;;;32.93;21.20;;;;;;;5.26;88.57;100999.75;20948409;27;20607;-69
2021/03/25 03:14:55;;;;;;;23.57;16.10;;;;;;;4.96;90.52;100976.88;20952771;27;20975;-69
2021/03/25 03:24:55;;;;;;;32.10;20.27;;;;;;;5.05;90.53;100995.13;20946074;28;20215;-69
2021/03/25 03:44:55;;;;;;;33.90;22.77;;;;;;;4.93;92.89;100982.28;20874872;27;20605;-69
2021/03/25 03:54:56;;;;;;;49.10;28.00;;;;;;;4.81;93.63;101002.03;20851570;28;20247;-69
2021/03/25 04:15:05;;;;;;;40.83;25.43;;;;;;;4.80;94.22;100999.41;20937197;27;20538;-70
2021/03/25 06:15:00;;;;;;;43.87;27.63;;;;;;;5.83;93.18;101038.47;20955242;27;20547;-66
2021/03/25 07:04:51;;;;;;;36.37;24.03;;;;;;;7.35;88.10;101048.88;20803990;28;20568;-66
2021/03/25 07:14:52;;;;;;;32.13;23.73;;;;;;;7.75;85.90;101049.91;20799604;28;20572;-66
2021/03/25 07:34:54;;;;;;;30.17;22.90;;;;;;;8.67;82.70;101071.69;20935697;27;20665;-67
2021/03/25 07:45:26;;;;;;;36.07;25.03;;;;;;;9.06;77.16;101068.16;20931752;28;20288;-69
2021/03/25 08:05:29;;;;;;;31.03;22.90;;;;;;;9.52;74.09;101065.06;20785790;28;20561;-69
2021/03/25 08:15:36;;;;;;;37.65;33.03;;;;;;;10.58;66.24;101060.66;20776751;28;20630;-69
2021/03/25 08:25:41;;;;;;;26.83;21.30;;;;;;;10.98;67.20;101057.59;20774871;28;20917;-67
2021/03/25 08:35:57;;;;;;;24.90;19.20;;;;;;;11.19;59.22;101059.06;20768059;28;20220;-66
2021/03/25 08:46:04;;;;;;;23.00;18.40;;;;;;;11.12;61.39;101052.34;20793704;28;20243;-67
2021/03/25 08:56:23;;;;;;;20.37;17.27;;;;;;;11.76;58.91;101059.44;20770033;28;20251;-67
2021/03/25 09:06:26;;;;;;;19.80;15.97;;;;;;;12.01;59.94;101060.72;20758463;28;20214;-59
2021/03/25 09:16:36;;;;;;;24.33;21.10;;;;;;;12.21;53.09;101060.38;20714686;28;20235;-67
2021/03/25 09:26:52;;;;;;;21.50;18.97;;;;;;;12.83;54.41;101069.97;20720655;28;20258;-64
2021/03/25 09:37:00;;;;;;;26.23;20.70;;;;;;;12.59;54.56;101050.91;20725173;28;20642;-62
2021/03/25 09:47:00;;;;;;;19.70;17.07;;;;;;;12.23;58.44;101053.13;20709313;28;20225;-60
2021/03/25 09:57:36;;;;;;;49.07;32.67;;;;;;;11.56;52.17;101057.03;20713522;28;20277;-64
2021/03/25 10:07:37;;;;;;;28.27;22.27;;;;;;;11.51;59.97;101046.59;20621995;28;20237;-68
2021/03/25 10:17:43;;;;;;;27.43;18.97;;;;;;;11.42;59.35;101043.56;20613797;28;20911;-64
2021/03/25 10:27:44;;;;;;;25.03;21.17;;;;;;;11.38;59.55;101037.53;20601823;28;20232;-68
2021/03/25 10:37:50;;;;;;;30.60;22.63;;;;;;;11.52;58.01;101034.09;20628808;28;20232;-64
2021/03/25 10:47:58;;;;;;;30.47;25.00;;;;;;;11.79;59.11;101021.84;20713656;28;20287;-66
2021/03/25 10:58:02;;;;;;;32.87;26.20;;;;;;;12.26;57.49;101015.50;20719791;28;20276;-67
2021/03/25 11:08:03;;;;;;;33.70;27.63;;;;;;;12.58;58.26;101001.00;20713251;28;20237;-63
2021/03/25 11:18:18;;;;;;;30.53;25.17;;;;;;;13.02;55.26;101005.41;20712541;28;20316;-62
2021/03/25 11:28:19;;;;;;;30.77;25.77;;;;;;;13.49;55.78;100994.34;20719809;28;20242;-66
2021/03/25 11:38:26;;;;;;;30.83;25.37;;;;;;;13.66;54.81;100979.78;20712441;28;20703;-66
2021/03/25 11:48:32;;;;;;;36.83;30.63;;;;;;;13.48;50.87;100960.44;20712407;28;20227;-67
2021/03/25 11:58:33;;;;;;;30.73;26.43;;;;;;;13.27;55.80;100952.00;20722849;28;20294;-58
2021/03/25 12:08:34;;;;;;;29.40;25.30;;;;;;;13.09;55.64;100952.28;20727353;28;20237;-64
2021/03/25 12:18:46;;;;;;;30.97;26.13;;;;;;;12.83;53.69;100952.13;20713736;28;20227;-58
2021/03/25 12:28:47;;;;;;;35.40;29.50;;;;;;;12.59;55.77;100948.31;20683873;28;20250;-63
2021/03/25 12:38:47;;;;;;;36.47;30.27;;;;;;;12.59;56.63;100938.47;20712937;28;21979;-67
2021/03/25 12:48:48;;;;;;;30.07;24.87;;;;;;;13.10;56.71;100922.69;20725491;28;20219;-63
2021/03/25 12:58:49;;;;;;;34.77;30.70;;;;;;;13.57;55.04;100916.91;20806106;28;20231;-62
2021/03/25 13:08:49;;;;;;;32.80;27.60;;;;;;;14.07;55.49;100921.50;20818774;28;20520;-61
2021/03/25 13:18:50;;;;;;;33.67;28.67;;;;;;;14.10;55.34;100908.84;20822814;28;20723;-61
2021/03/25 13:38:49;;;;;;;32.37;28.00;;;;;;;13.48;56.72;100905.94;20803683;28;20677;-59
2021/03/25 13:48:50;;;;;;;39.67;32.40;;;;;;;13.45;56.00;100900.78;20800029;28;20226;-58
2021/03/25 13:58:50;;;;;;;34.57;30.40;;;;;;;13.00;56.40;100894.78;20800377;28;20220;-58
2021/03/25 14:08:50;;;;;;;34.40;29.10;;;;;;;12.81;56.92;100899.59;20799643;28;20316;-59
2021/03/25 14:18:52;;;;;;;33.77;28.87;;;;;;;12.95;56.91;100875.47;20799249;28;20705;-59
2021/03/25 14:28:52;;;;;;;42.13;35.87;;;;;;;12.80;56.12;100887.19;20798468;28;20402;-59
2021/03/25 14:38:54;;;;;;;38.73;34.10;;;;;;;12.41;55.86;100874.53;20792577;28;21117;-68
2021/03/25 14:48:54;;;;;;;33.50;28.77;;;;;;;12.39;57.68;100882.66;20716481;28;20625;-65
2021/03/25 15:08:47;;;;;;;38.83;31.37;;;;;;;12.56;57.10;100894.94;21010611;27;20603;-60
2021/03/25 15:18:47;;;;;;;36.67;32.20;;;;;;;12.61;56.28;100891.03;21019012;28;20304;-60
2021/03/25 15:28:48;;;;;;;34.93;29.70;;;;;;;12.51;57.81;100889.03;21002053;28;20553;-60
2021/03/25 15:38:48;;;;;;;32.17;28.43;;;;;;;12.53;57.66;100889.81;21033061;28;20222;-60
2021/03/25 15:48:49;;;;;;;30.03;26.83;;;;;;;12.29;57.19;100892.22;21024850;28;20219;-66
2021/03/25 15:58:49;;;;;;;26.70;23.13;;;;;;;11.92;57.64;100892.75;20972842;28;20222;-60
2021/03/25 16:08:50;;;;;;;29.10;24.77;;;;;;;11.40;58.52;100882.44;20922026;28;20229;-61
2021/03/25 16:18:50;;;;;;;31.67;27.50;;;;;;;10.88;60.27;100893.44;20910656;28;20222;-59
2021/03/25 16:28:51;;;;;;;26.40;22.93;;;;;;;10.25;63.16;100901.41;20917258;28;20259;-59
2021/03/25 16:38:51;;;;;;;22.83;18.97;;;;;;;9.68;65.25;100898.13;20879350;28;20230;-67
2021/03/25 16:48:56;;;;;;;30.53;22.63;;;;;;;9.20;66.38;100908.59;20973710;28;20222;-67
2021/03/25 16:58:56;;;;;;;27.67;23.20;;;;;;;8.72;65.99;100918.00;21000503;28;20259;-59
2021/03/25 17:08:57;;;;;;;33.17;25.93;;;;;;;8.32;68.13;100928.78;21013698;28;20312;-60
2021/03/25 17:18:57;;;;;;;23.03;19.70;;;;;;;7.59;69.71;100901.81;20982997;28;20211;-66
2021/03/25 17:28:58;;;;;;;25.77;19.77;;;;;;;7.24;71.10;100934.28;20976773;28;20261;-63
2021/03/25 17:38:58;;;;;;;27.80;21.27;;;;;;;6.82;73.17;100932.41;20884730;28;21153;-58
2021/03/25 17:49:00;;;;;;;32.10;23.70;;;;;;;6.56;73.52;100948.44;20869409;28;20318;-60
2021/03/25 17:59:00;;;;;;;44.13;26.73;;;;;;;6.38;74.31;100951.78;20881083;28;20473;-58
2021/03/25 18:28:52;;;;;;;45.80;28.03;;;;;;;5.33;82.15;100966.84;20873981;27;20602;-60
2021/03/25 18:38:52;;;;;;;46.53;30.43;;;;;;;5.18;86.53;100980.59;20851902;28;20219;-59
2021/03/25 18:48:53;;;;;;;44.80;30.40;;;;;;;4.88;87.33;100971.81;20870513;28;20215;-60
2021/03/25 19:28:40;;;;;;;49.27;32.00;;;;;;;4.25;93.28;100969.28;20709283;28;20311;-60
2021/03/25 19:48:38;;;;;;;46.23;28.10;;;;;;;3.73;94.28;100986.53;21016904;27;20577;-60
2021/03/25 19:58:40;;;;;;;47.33;28.43;;;;;;;3.49;96.26;100987.16;21034533;28;20878;-61
2021/03/25 20:38:29;;;;;;;67.10;38.30;;;;;;;2.97;100.00;101014.72;20955598;27;855737;-59
2021/03/25 20:48:30;;;;;;;80.27;48.87;;;;;;;3.15;100.00;101009.03;20909659;28;20985;-61
2021/03/25 21:08:33;;;;;;;63.03;40.30;;;;;;;3.61;98.20;101015.88;20763611;28;20643;-60
2021/03/25 21:38:27;;;;;;;57.70;37.43;;;;;;;3.61;96.16;101031.72;20909090;27;20534;-60
2021/03/25 22:08:21;;;;;;;60.50;39.03;;;;;;;3.62;95.87;101020.25;20846919;27;20672;-59
2021/03/25 22:28:18;;;;;;;61.47;39.07;;;;;;;3.43;95.67;101019.81;21031042;27;20585;-59
2021/03/25 22:48:18;;;;;;;57.37;33.33;;;;;;;3.65;95.39;101030.72;20993333;27;20615;-59
2021/03/25 23:28:17;;;;;;;70.70;43.10;;;;;;;4.39;93.22;101030.53;21013509;27;20615;-59
2021/03/25 23:58:13;;;;;;;66.37;43.27;;;;;;;4.57;92.48;101040.59;20848026;27;20616;-59
